Falls City, Texas
Current Conditions -  °F | °C
As of 3:35 AM on Thursday 27 Nov 2014 (Local Time) from KPEZ Reporting Station
Clear Clear  
Wind Chill: 47°   Ceiling: Unl
Heat Index: 49°   Visibility: 10mi
Dew Point: 36°   Wind: 5mph
Humidity: 61%   Direction: 30°NNE
Pressure: 30.38"   Gusts: NA
Location:  28.98°N, 98.02°W
Report Text: KPEZ 270935Z AUTO 03004KT 10SM CLR 09/02 A3038 RMK AO2 T00940023
Loading
Personal Weather Stations






























Interactive Weather Map New forecast layout! Learn more

10-Day Weather Forecast

Advertisements
Track Severe Weather on mobile